• Join FlightAware (Why Join?)
  • Login
  • US Flag 
06:59PM EDT


 

Airport Tracker/Info


-or-


 

Live Flight TrackerFlight Track Log ✈ SWA265 ✈ 29-Apr-2013 ✈ KLAS - KBWI

Flight Track Log - Related Links

Times and Time Zones

All times are in EDT time to prevent confusion due to time zone crossing. See the SWA265 flight status page for this flight to view local times or setup timezone preferences in your user account.

Time Position Orientation Groundspeed Altitude Reporting Facility
EDT Latitude Longitude Course Direction KTS MPH feet Rate Location/Type
10:59AM 36.0783 -115.1742 269° West 176 203 3,200  Level Los Angeles Center
11:00AM 36.0775 -115.2456 269° West 214 246 4,800 1,800 Climbing Los Angeles Center
11:01AM 36.1242 -115.2931 321° Northwest 242 278 7,000 2,280 Climbing Los Angeles Center
11:02AM 36.1817 -115.2319 41° Northeast 253 291 9,500 2,220 Climbing Los Angeles Center
11:03AM 36.1975 -115.1336 79° East 283 326 11,600 2,340 Climbing Los Angeles Center
11:04AM 36.1981 -115.0256 90° East 306 352 14,400 2,580 Climbing Los Angeles Center
11:05AM 36.1994 -114.9142 89° East 318 366 17,000 2,400 Climbing Los Angeles Center
11:06AM 36.2003 -114.7953 89° East 336 387 19,400 2,400 Climbing Los Angeles Center
11:07AM 36.2000 -114.6717 90° East 352 405 22,000 2,280 Climbing Los Angeles Center
11:08AM 36.1983 -114.5481 91° East 357 411 24,100 2,100 Climbing Los Angeles Center
11:09AM 36.1972 -114.3925 90° East 367 422 26,400 1,260 Climbing Los Angeles Center
11:10AM 36.1953 -114.2544 91° East 383 441 26,800 720 Climbing Los Angeles Center
11:11AM 36.2078 -114.1044 84° East 411 473 28,000 1,200 Climbing Los Angeles Center
11:12AM 36.2294 -113.9517 80° East 432 497 29,300 1,260 Climbing Los Angeles Center
11:13AM 36.2483 -113.7953 81° East 447 514 30,700 1,500 Climbing Los Angeles Center
11:14AM 36.2669 -113.6397 82° East 454 522 32,400 1,560 Climbing Los Angeles Center
11:15AM 36.2894 -113.4556 81° East 453 521 34,000 1,380 Climbing Los Angeles Center
11:16AM 36.3061 -113.3031 82° East 451 519 35,300 1,020 Climbing Los Angeles Center
11:17AM 36.3300 -113.1539 79° East 446 513 36,200 780 Climbing Los Angeles Center
11:18AM 36.3697 -113.0086 71° East 442 509 37,000 360 Climbing Los Angeles Center
11:19AM 36.4100 -112.8647 71° East 443 510 37,000  Level Los Angeles Center
11:20AM 36.4492 -112.7178 72° East 447 514 37,000  Level Los Angeles Center
11:21AM 36.4867 -112.5706 72° East 448 516 37,000  Level Los Angeles Center
11:22AM 36.5325 -112.3928 72° East 450 518 37,000  Level Los Angeles Center
11:23AM 36.5706 -112.2444 72° East 450 518 37,000  Level Los Angeles Center
11:24AM 36.6086 -112.0953 72° East 452 520 37,000  Level Los Angeles Center
11:26AM 36.6478 -111.9472 72° East 453 521 37,000  Level Los Angeles Center
11:26AM 36.6536 -111.9139 78° East 455 524 37,000  Level Denver Center
11:27AM 36.7019 -111.7214 73° East 456 525 37,000  Level Denver Center
11:28AM 36.7367 -111.5781 73° East 455 524 37,000  Level Denver Center
11:29AM 36.7794 -111.4103 72° East 454 522 37,000  Level Denver Center
11:30AM 36.8144 -111.2669 73° East 453 521 37,000  Level Denver Center
11:31AM 36.8556 -111.0992 73° East 452 520 37,000  Level Denver Center
11:32AM 36.8922 -110.9528 73° East 457 526 37,000  Level Denver Center
11:33AM 36.9336 -110.7819 73° East 459 528 37,000  Level Denver Center
11:34AM 36.9686 -110.6364 73° East 458 527 37,000  Level Denver Center
11:35AM 37.0100 -110.4642 73° East 461 531 37,100  Climbing Denver Center
11:36AM 37.0444 -110.3167 74° East 461 531 37,000 -60 Descending Denver Center
11:37AM 37.0850 -110.1431 74° East 462 532 37,000  Level Denver Center
11:38AM 37.1197 -109.9961 73° East 462 532 37,000  Level Denver Center
11:40AM 37.1656 -109.7989 74° East 461 531 37,000  Level Denver Center
11:41AM 37.2006 -109.6503 73° East 461 531 37,000  Level Denver Center
11:42AM 37.2397 -109.4781 74° East 459 528 37,000  Level Denver Center
11:43AM 37.2733 -109.3286 74° East 463 533 37,000  Level Denver Center
11:44AM 37.3125 -109.1564 74° East 459 528 37,000  Level Denver Center
11:45AM 37.3456 -109.0069 74° East 462 532 37,000  Level Denver Center
11:46AM 37.3781 -108.8592 74° East 459 528 37,000  Level Denver Center
11:47AM 37.4169 -108.6867 74° East 458 527 37,000  Level Denver Center
11:48AM 37.4500 -108.5383 74° East 459 528 37,000  Level Denver Center
11:49AM 37.4869 -108.3667 75° East 457 526 37,100  Climbing Denver Center
11:50AM 37.5189 -108.2181 75° East 457 526 37,000 -60 Descending Denver Center
11:51AM 37.5569 -108.0433 75° East 461 531 37,000  Level Denver Center
11:52AM 37.5881 -107.8972 75° East 454 522 37,000  Level Denver Center
11:53AM 37.6244 -107.7261 75° East 452 520 37,000  Level Denver Center
11:54AM 37.6556 -107.5775 75° East 455 524 37,000  Level Denver Center
11:55AM 37.6919 -107.4036 75° East 459 528 37,000  Level Denver Center
11:56AM 37.7228 -107.2553 75° East 457 526 37,000  Level Denver Center
11:57AM 37.7536 -107.1047 75° East 461 531 37,100  Climbing Denver Center
11:58AM 37.7897 -106.9292 75° East 463 533 37,100 -60 Level Denver Center
11:59AM 37.8281 -106.7364 76° East 466 536 37,000 -60 Descending Denver Center
12:00PM 37.8636 -106.5583 76° East 468 539 37,000  Level Denver Center
12:01PM 37.8956 -106.3992 76° East 465 535 37,000  Level Denver Center
12:02PM 37.9250 -106.2483 76° East 462 532 37,000  Level Denver Center
12:04PM 37.9594 -106.0725 76° East 461 531 37,100  Climbing Denver Center
12:05PM 37.9889 -105.9222 76° East 459 528 37,000 -60 Descending Denver Center
12:06PM 38.0236 -105.7464 76° East 459 528 37,000  Level Denver Center
12:07PM 38.0467 -105.6206 77° East 460 529 37,000  Level Denver Center
12:08PM 38.0864 -105.4133 76° East 473 544 37,100  Climbing Denver Center
12:09PM 38.1156 -105.2581 77° East 472 543 37,000 -60 Descending Denver Center
12:10PM 38.1458 -105.1011 76° East 475 547 37,000  Level Denver Center
12:11PM 38.1789 -104.9203 77° East 471 542 37,000  Level Denver Center
12:12PM 38.2083 -104.7622 77° East 477 549 37,000  Level Denver Center
12:13PM 38.2422 -104.5728 77° East 474 545 37,000  Level Denver Center
12:14PM 38.2694 -104.4256 77° East 468 539 37,000  Level Denver Center
12:15PM 38.3011 -104.2450 77° East 467 537 37,000  Level Denver Center
12:16PM 38.3289 -104.0883 77° East 466 536 37,000  Level Denver Center
12:17PM 38.3506 -103.9642 77° East 461 531 37,000  Level Denver Center
12:18PM 38.3908 -103.7333 77° East 465 535 37,000  Level Denver Center
12:19PM 38.4211 -103.5542 78° East 461 531 37,000  Level Denver Center
12:20PM 38.4486 -103.3953 77° East 461 531 37,000  Level Denver Center
12:21PM 38.4747 -103.2406 78° East 465 535 37,100  Climbing Denver Center
12:22PM 38.5047 -103.0614 78° East 464 534 37,000 -60 Descending Denver Center
12:23PM 38.5292 -102.9064 79° East 465 535 37,000  Level Denver Center
12:24PM 38.5608 -102.7247 77° East 469 540 37,000  Level Denver Center
12:25PM 38.5861 -102.5672 78° East 471 542 37,000  Level Denver Center
12:27PM 38.6153 -102.3842 78° East 472 543 37,000  Level Denver Center
12:28PM 38.6453 -102.2017 78° East 469 540 37,000  Level Denver Center
12:29PM 38.6750 -102.0150 78° East 478 550 37,000  Level Denver Center
12:30PM 38.6992 -101.8567 79° East 475 547 37,000  Level Denver Center
12:31PM 38.7278 -101.6714 79° East 473 544 37,000  Level Denver Center
12:32PM 38.7606 -101.4594 79° East 474 545 37,000  Level Denver Center
12:33PM 38.7842 -101.3014 79° East 471 542 37,000  Level Denver Center
12:34PM 38.8122 -101.1175 79° East 470 541 37,000  Level Denver Center
12:35PM 38.8358 -100.9606 79° East 467 537 37,000  Level Denver Center
12:36PM 38.8561 -100.8286 79° East 469 540 37,000  Level Denver Center
12:37PM 38.8861 -100.6178 80° East 471 542 37,000  Level Denver Center
12:38PM 38.9092 -100.4606 79° East 469 540 37,000  Level Denver Center
12:39PM 38.9350 -100.2744 80° East 472 543 37,000  Level Denver Center
12:40PM 38.9575 -100.1158 80° East 472 543 37,000  Level Denver Center
12:41PM 38.9842 -99.9303 79° East 472 543 37,000  Level Denver Center
12:42PM 39.0053 -99.7694 80° East 475 547 37,000  Level Denver Center
12:43PM 39.0317 -99.5803 80° East 478 550 37,000  Level Denver Center
12:44PM 39.0536 -99.4183 80° East 480 552 37,000  Level Denver Center
12:46PM 39.0783 -99.2275 80° East 482 555 37,000  Level Denver Center
12:47PM 39.0994 -99.0628 81° East 486 559 37,000  Level Denver Center
12:48PM 39.1236 -98.8761 80° East 486 559 37,000  Level Denver Center
12:49PM 39.1453 -98.7072 81° East 481 554 37,000  Level Denver Center
12:50PM 39.1661 -98.5375 81° East 481 554 37,000  Level Denver Center
12:51PM 39.1944 -98.3142 81° East 478 550 37,000  Level Kansas City Center
12:52PM 39.2156 -98.1439 81° East 480 552 37,000  Level Kansas City Center
12:53PM 39.2372 -97.9614 81° East 470 541 37,000  Level Kansas City Center
12:54PM 39.2586 -97.7944 81° East 483 556 37,000  Level Kansas City Center
12:55PM 39.2783 -97.6267 81° East 475 547 37,000  Level Kansas City Center
12:56PM 39.2992 -97.4472 81° East 477 549 37,000  Level Kansas City Center
12:57PM 39.3217 -97.2553 81° East 482 555 37,000  Level Kansas City Center
12:58PM 39.3397 -97.0894 82° East 486 559 37,000  Level Kansas City Center
12:59PM 39.3622 -96.8953 81° East 488 562 37,000  Level Kansas City Center
01:00PM 39.3800 -96.7275 82° East 492 566 37,000  Level Kansas City Center
01:01PM 39.3983 -96.5606 82° East 491 565 37,000  Level Kansas City Center
01:02PM 39.4164 -96.3894 82° East 494 568 37,000  Level Kansas City Center
01:03PM 39.4386 -96.1811 82° East 489 563 37,000  Level Kansas City Center
01:04PM 39.4556 -96.0036 83° East 488 562 37,000  Level Kansas City Center
01:05PM 39.4728 -95.8367 82° East 486 559 37,000  Level Kansas City Center
01:06PM 39.4931 -95.6428 82° East 485 558 37,000  Level Kansas City Center
01:07PM 39.5117 -95.4586 82° East 484 557 37,000  Level Kansas City Center
01:09PM 39.5289 -95.2867 83° East 482 555 37,000  Level Kansas City Center
01:10PM 39.5453 -95.1142 83° East 484 557 37,000  Level Kansas City Center
01:11PM 39.5606 -94.9481 83° East 482 555 37,000  Level Kansas City Center
01:12PM 39.5783 -94.7550 83° East 481 554 37,000  Level Kansas City Center
01:13PM 39.5936 -94.5886 83° East 483 556 37,000 300 Level Kansas City Center
01:14PM 39.6111 -94.3961 83° East 480 552 37,700 900 Climbing Kansas City Center
01:15PM 39.6261 -94.2319 83° East 479 551 38,900 600 Climbing Kansas City Center
01:16PM 39.6417 -94.0436 84° East 471 542 39,000  Climbing Kansas City Center
01:17PM 39.6556 -93.8817 84° East 473 544 39,000  Level Kansas City Center
01:18PM 39.6692 -93.7181 84° East 474 545 39,000  Level Kansas City Center
01:19PM 39.6822 -93.5464 84° East 480 552 39,000  Level Kansas City Center
01:20PM 39.7000 -93.3442 83° East 477 549 39,000  Level Kansas City Center
01:21PM 39.7144 -93.1733 84° East 480 552 39,000  Level Kansas City Center
01:22PM 39.7264 -93.0017 85° East 483 556 39,000  Level Kansas City Center
01:23PM 39.7394 -92.8306 84° East 483 556 39,000  Level Kansas City Center
01:24PM 39.7544 -92.6292 84° East 477 549 39,000  Level Kansas City Center
01:25PM 39.7669 -92.4594 84° East 477 549 39,000  Level Kansas City Center
01:26PM 39.7778 -92.2919 85° East 476 548 39,000  Level Kansas City Center
01:27PM 39.7903 -92.1244 84° East 474 545 39,000  Level Kansas City Center
01:28PM 39.8008 -91.9572 85° East 472 543 39,000  Level Kansas City Center
01:29PM 39.8153 -91.7536 85° East 474 545 39,000  Level Kansas City Center
01:30PM 39.8253 -91.5850 86° East 476 548 39,000  Level Kansas City Center
01:31PM 39.8369 -91.4133 85° East 479 551 39,000  Level Kansas City Center
01:32PM 39.8461 -91.2419 86° East 480 552 39,000  Level Kansas City Center
01:33PM 39.8592 -91.0361 85° East 480 552 39,000  Level Kansas City Center
01:34PM 39.8689 -90.8744 85° East 480 552 39,000  Level Kansas City Center
01:35PM 39.8789 -90.7025 86° East 479 551 39,000  Level Kansas City Center
01:36PM 39.8889 -90.5294 86° East 479 551 39,000  Level Kansas City Center
01:37PM 39.8994 -90.3217 86° East 481 554 39,000  Level Kansas City Center
01:38PM 39.9017 -90.2528 88° East 482 555 39,000  Level Chicago Center
01:39PM 39.9114 -90.0806 86° East 481 554 39,000  Level Chicago Center
01:40PM 39.9197 -89.9086 86° East 480 552 39,000  Level Chicago Center
01:41PM 39.9256 -89.8031 86° East 482 555 39,000  Level Kansas City Center
01:42PM 39.9347 -89.6300 86° East 481 554 39,000  Level Kansas City Center
01:42PM 39.9364 -89.5639 88° East 480 552 39,000  Level Chicago Center
01:43PM 39.9461 -89.3553 86° East 482 555 39,000  Level Chicago Center
01:44PM 39.9514 -89.2497 86° East 480 552 39,000  Level Kansas City Center
01:45PM 39.9589 -89.0750 87° East 483 556 39,000  Level Kansas City Center
01:46PM 39.9664 -88.9014 87° East 482 555 39,000  Level Kansas City Center
01:47PM 39.9733 -88.7269 87° East 483 556 39,000  Level Kansas City Center
01:48PM 39.9800 -88.5531 87° East 483 556 39,000  Level Kansas City Center
01:49PM 39.9894 -88.3433 87° East 485 558 39,000  Level Kansas City Center
01:49PM 39.9906 -88.2753 89° East 482 555 39,000  Level Chicago Center
01:50PM 39.9967 -88.1219 87° East 480 552 39,000  Level Chicago Center
01:51PM 40.0033 -87.9194 87° East 477 549 39,000  Level Chicago Center
01:52PM 40.0050 -87.8611 88° East 477 549 39,000  Level Indianapolis Center
01:53PM 40.0106 -87.6883 88° East 475 547 39,000  Level Indianapolis Center
01:54PM 40.0144 -87.5150 88° East 475 547 39,000  Level Indianapolis Center
01:55PM 40.0208 -87.3422 87° East 474 545 39,000  Level Indianapolis Center
01:56PM 40.0253 -87.1678 88° East 476 548 39,000  Level Indianapolis Center
01:57PM 40.0294 -86.9928 88° East 479 551 39,000  Level Indianapolis Center
01:58PM 40.0336 -86.8169 88° East 479 551 39,000  Level Indianapolis Center
01:59PM 40.0372 -86.6411 88° East 480 552 39,000  Level Indianapolis Center
02:00PM 40.0422 -86.4367 88° East 476 548 39,000  Level Indianapolis Center
02:01PM 40.0456 -86.3206 88° East 477 549 39,000  Level Chicago Center
02:02PM 40.0486 -86.1458 89° East 475 547 39,000  Level Chicago Center
02:02PM 40.0486 -86.0883 90° East 472 543 39,000  Level Indianapolis Center
02:03PM 40.0503 -85.9169 89° East 469 540 39,000  Level Indianapolis Center
02:04PM 40.0533 -85.7461 89° East 466 536 39,000  Level Indianapolis Center
02:05PM 40.0556 -85.5783 89° East 462 532 39,000  Level Indianapolis Center
02:06PM 40.0578 -85.4106 89° East 460 529 39,000  Level Indianapolis Center
02:07PM 40.0594 -85.2447 89° East 455 524 39,000  Level Indianapolis Center
02:08PM 40.0603 -85.0769 90° East 458 527 39,000  Level Indianapolis Center
02:09PM 40.0614 -84.9092 89° East 461 531 39,000  Level Indianapolis Center
02:10PM 40.0633 -84.7392 89° East 459 528 39,000  Level Indianapolis Center
02:11PM 40.0622 -84.5414 90° East 464 534 39,000  Level Indianapolis Center
02:12PM 40.0650 -84.3719 89° East 461 531 39,000  Level Indianapolis Center
02:13PM 40.0636 -84.2022 91° East 463 533 39,000  Level Indianapolis Center
02:14PM 40.0642 -84.0306 90° East 466 536 39,000  Level Indianapolis Center
02:15PM 40.0636 -83.8586 90° East 467 537 39,000  Level Indianapolis Center
02:16PM 40.0636 -83.6861 90° East 469 540 39,000  Level Indianapolis Center
02:17PM 40.0594 -83.5111 92° East 471 542 39,000  Level Indianapolis Center
02:18PM 40.0503 -83.3347 94° East 475 547 39,000  Level Indianapolis Center
02:19PM 40.0422 -83.1578 93° East 479 551 39,000  Level Indianapolis Center
02:21PM 40.0350 -82.9814 93° East 479 551 39,000  Level Indianapolis Center
02:22PM 40.0267 -82.8083 94° East 476 548 39,000  Level Indianapolis Center
02:23PM 40.0183 -82.6342 94° East 476 548 39,000  Level Indianapolis Center
02:24PM 40.0081 -82.4319 94° East 475 547 39,000  Level Indianapolis Center
02:25PM 39.9992 -82.2606 94° East 472 543 39,000  Level Indianapolis Center
02:26PM 39.9889 -82.0906 94° East 468 539 39,000  Level Indianapolis Center
02:27PM 39.9800 -81.9211 94° East 464 534 39,000  Level Indianapolis Center
02:28PM 39.9697 -81.7392 94° East 464 534 39,000  Level Indianapolis Center
02:29PM 39.9600 -81.5850 95° East 462 532 39,000  Level Indianapolis Center
02:30PM 39.9425 -81.4133 98° East 461 531 39,000  Level Indianapolis Center
02:31PM 39.9233 -81.2450 98° East 465 535 39,000  Level Indianapolis Center
02:32PM 39.9044 -81.0794 98° East 463 533 39,000  Level Indianapolis Center
02:33PM 39.8847 -80.9106 99° East 468 539 39,000  Level Indianapolis Center
02:34PM 39.8617 -80.7100 98° East 466 536 39,000  Level Indianapolis Center
02:35PM 39.8419 -80.5208 98° East 465 535 39,000  Level Cleveland Center
02:36PM 39.8208 -80.3506 99° East 465 535 39,000  Level Cleveland Center
02:38PM 39.7872 -80.0581 98° East 457 526 39,000 -180 Level Washington Center
02:39PM 39.7661 -79.8919 99° East 457 526 38,500 -1,500 Descending Washington Center
02:40PM 39.7447 -79.7286 100° East 457 526 36,100 -2,760 Descending Washington Center
02:41PM 39.7233 -79.5628 99° East 462 532 32,900 -3,240 Descending Washington Center
02:42PM 39.7017 -79.3944 99° East 468 539 29,700 -3,000 Descending Washington Center
02:43PM 39.6817 -79.2289 99° East 468 539 27,100 -2,340 Descending Washington Center
02:44PM 39.6594 -79.0686 100° East 468 539 25,000 -1,080 Descending Washington Center
02:45PM 39.6206 -78.8972 106° East 455 524 25,000 -120 Level Washington Center
02:46PM 39.5850 -78.7392 106° East 455 524 24,800 -1,380 Descending Washington Center
02:47PM 39.5514 -78.5872 106° East 450 518 22,300 -2,220 Descending Washington Center
02:48PM 39.5253 -78.4675 106° East 443 510 20,400 -2,160 Descending Washington Center
02:49PM 39.4892 -78.3103 107° East 425 489 18,100 -2,460 Descending Washington Center
02:50PM 39.4589 -78.1747 106° East 413 475 15,600 -1,740 Descending Washington Center
02:51PM 39.4283 -78.0392 106° East 400 460 14,600 -1,020 Descending Washington Center
02:52PM 39.3997 -77.9119 106° East 385 443 13,600 -1,560 Descending Washington Center
02:53PM 39.3917 -77.7803 94° East 374 430 11,500 -1,380 Descending Washington Center
02:54PM 39.4083 -77.6544 80° East 361 415 10,900 -300 Descending Washington Center
02:55PM 39.4231 -77.5286 81° East 355 409 11,000  Climbing Washington Center
02:56PM 39.4394 -77.4081 80° East 349 402 11,000 -120 Level Washington Center
02:56PM 39.4500 -77.3500 77° East 305 351 10,900 -120 Descending Potomac TRACON
02:57PM 39.4667 -77.2500 78° East 293 337 10,900 -420 Level Potomac TRACON
02:58PM 39.4667 -77.1500 90° East 292 336 10,200 -1,140 Descending Potomac TRACON
02:59PM 39.4667 -77.0500 90° East 284 327 8,700 -1,440 Descending Potomac TRACON
03:00PM 39.4667 -76.9667 90° East 281 323 7,500 -1,440 Descending Potomac TRACON
03:01PM 39.4833 -76.8667 78° East 276 318 6,000 -1,440 Descending Potomac TRACON
03:02PM 39.4333 -76.8000 134° Southeast 256 295 4,700 -1,020 Descending Potomac TRACON
03:03PM 39.3667 -76.8167 191° South 249 287 4,000 -420 Descending Potomac TRACON
03:04PM 39.3167 -76.8667 218° Southwest 249 287 3,900  Descending Potomac TRACON
03:05PM 39.2833 -76.9333 237° Southwest 218 251 4,000 -480 Climbing Potomac TRACON
03:06PM 39.2333 -76.9667 207° Southwest 217 250 3,000 -840 Descending Potomac TRACON
03:07PM 39.1833 -76.9333 153° Southeast 218 251 2,400 -540 Descending Potomac TRACON
03:08PM 39.1833 -76.8667 90° East 206 237 2,000 -360 Descending Potomac TRACON
03:09PM 39.1833 -76.8000 90° East 153 176 1,700 -480 Descending Potomac TRACON
03:10PM 39.1833 -76.7500 90° East 131 151 1,100 -660 Descending Potomac TRACON
03:11PM 39.1833 -76.7000 90° East 131 151 400 -660 Descending Potomac TRACON
03:13PM 39.1667 -76.6667 96° East  Level FlightAware Approximate